createdAt,value
2019-04-26T00:02:01.540Z,62.70
2019-04-26T00:04:30.432Z,62.80
2019-04-26T00:07:05.260Z,63.50
2019-04-26T00:09:38.977Z,63.80
2019-04-26T00:12:28.178Z,63.80
2019-04-26T00:15:12.449Z,63.80
2019-04-26T00:17:44.396Z,64.80
2019-04-26T00:20:13.072Z,65.20
2019-04-26T00:22:43.576Z,65.30
2019-04-26T00:25:12.469Z,65.70
2019-04-26T00:27:41.133Z,65.80
2019-04-26T00:30:12.097Z,66.20
2019-04-26T00:32:46.308Z,66.40
2019-04-26T00:35:16.513Z,66.40
2019-04-26T00:37:47.814Z,66.80
2019-04-26T00:40:16.523Z,66.90
2019-04-26T00:42:47.883Z,67.40
2019-04-26T00:45:19.398Z,67.70
2019-04-26T00:47:51.621Z,68.10
2019-04-26T00:50:21.299Z,68.50
2019-04-26T00:52:51.643Z,68.50
2019-04-26T00:55:21.949Z,68.80
2019-04-26T00:57:51.287Z,68.90
2019-04-26T01:00:19.951Z,68.80
2019-04-26T01:02:55.840Z,68.70
2019-04-26T01:05:25.244Z,68.70
2019-04-26T01:10:47.410Z,69.10
2019-04-26T01:13:16.440Z,69.40
2019-04-26T01:15:45.736Z,69.80
2019-04-26T01:18:18.655Z,70.40
2019-04-26T01:20:50.415Z,71.00
2019-04-26T01:23:21.220Z,71.50
2019-04-26T01:26:21.063Z,71.70
2019-04-26T01:29:11.314Z,71.90
2019-04-26T01:32:03.653Z,72.30
2019-04-26T01:34:38.054Z,72.90
2019-04-26T01:37:19.220Z,72.50
2019-04-26T01:39:53.003Z,72.90
2019-04-26T01:42:29.177Z,72.70
2019-04-26T01:45:15.656Z,73.20
2019-04-26T01:47:52.662Z,72.80
2019-04-26T01:50:25.244Z,73.70
2019-04-26T01:52:57.061Z,74.20
2019-04-26T01:55:29.179Z,74.30
2019-04-26T01:58:23.238Z,74.90
2019-04-26T02:00:56.278Z,75.40
2019-04-26T02:03:29.837Z,75.30
2019-04-26T02:05:58.848Z,75.70
2019-04-26T02:08:28.271Z,74.90
2019-04-26T02:10:59.085Z,75.30
2019-04-26T02:13:28.913Z,75.10
2019-04-26T02:15:57.517Z,74.90
2019-04-26T02:18:29.406Z,74.70
2019-04-26T02:21:24.608Z,75.00
2019-04-26T02:23:56.491Z,75.00
2019-04-26T02:26:43.224Z,75.60
2019-04-26T02:29:14.884Z,75.70
2019-04-26T02:31:48.747Z,76.20
2019-04-26T02:34:17.587Z,75.30
2019-04-26T02:36:57.622Z,75.30
2019-04-26T02:39:23.117Z,75.30
2019-04-26T02:42:14.196Z,75.40
2019-04-26T02:44:49.291Z,75.20
2019-04-26T02:47:40.378Z,76.00
2019-04-26T02:50:13.695Z,76.30
2019-04-26T02:53:02.703Z,76.20
2019-04-26T02:56:09.189Z,76.40
2019-04-26T02:58:40.829Z,76.40
2019-04-26T03:01:17.677Z,76.00
2019-04-26T03:03:41.477Z,77.00
2019-04-26T03:06:10.294Z,77.40
2019-04-26T03:08:42.842Z,77.90
2019-04-26T03:11:17.231Z,78.80
2019-04-26T03:13:50.231Z,79.50
2019-04-26T03:16:39.245Z,79.00
2019-04-26T03:19:12.873Z,79.70
2019-04-26T03:22:00.878Z,79.60
2019-04-26T03:24:51.903Z,80.00
2019-04-26T03:27:39.346Z,79.00
2019-04-26T03:30:42.378Z,79.40
2019-04-26T03:33:20.167Z,79.90
2019-04-26T03:36:15.255Z,80.80
2019-04-26T03:42:19.346Z,80.40
2019-04-26T03:45:07.110Z,81.60
2019-04-26T03:47:41.984Z,81.50
2019-04-26T03:50:18.259Z,81.70
2019-04-26T03:56:09.447Z,82.00
2019-04-26T03:58:59.242Z,81.70
2019-04-26T04:01:32.449Z,80.90
2019-04-26T04:07:04.832Z,83.40
2019-04-26T04:09:35.890Z,82.60
2019-04-26T04:12:22.185Z,83.90
2019-04-26T04:17:50.216Z,83.90
2019-04-26T04:20:59.319Z,83.20
2019-04-26T04:23:33.705Z,82.40
2019-04-26T04:26:05.382Z,81.70
2019-04-26T04:28:53.162Z,81.20
2019-04-26T04:32:03.678Z,81.70
2019-04-26T04:34:42.083Z,81.00
2019-04-26T04:37:15.570Z,79.90
2019-04-26T04:40:09.419Z,80.80
2019-04-26T04:43:04.239Z,80.20
2019-04-26T04:46:07.346Z,79.60
2019-04-26T04:48:50.738Z,78.70
2019-04-26T04:51:57.387Z,77.90
2019-04-26T04:55:06.669Z,77.60
2019-04-26T05:01:13.008Z,75.90
2019-04-26T05:03:56.322Z,76.20
2019-04-26T05:06:53.497Z,71.80
2019-04-26T05:12:30.800Z,71.90
2019-04-26T05:18:38.270Z,67.10
2019-04-26T05:21:20.555Z,64.00
2019-04-26T05:24:13.267Z,64.80
2019-04-26T05:26:52.079Z,63.90
2019-04-26T05:29:42.055Z,63.70
2019-04-26T05:35:41.814Z,66.30
2019-04-26T05:38:32.957Z,67.10
2019-04-26T05:41:45.878Z,67.50
2019-04-26T05:44:43.501Z,67.90
2019-04-26T05:48:04.251Z,66.60
2019-04-26T05:50:35.861Z,68.10
2019-04-26T05:53:34.468Z,68.20
2019-04-26T05:56:25.059Z,68.40
2019-04-26T05:59:18.476Z,69.80
2019-04-26T06:02:18.628Z,69.90
2019-04-26T06:05:19.019Z,68.50
2019-04-26T06:07:58.524Z,69.10
2019-04-26T06:10:43.622Z,68.40
2019-04-26T06:13:47.887Z,70.00
2019-04-26T06:16:57.648Z,69.10
2019-04-26T06:20:02.552Z,68.60
2019-04-26T06:23:08.729Z,69.40
2019-04-26T06:25:46.773Z,69.70
2019-04-26T06:28:37.499Z,70.10
2019-04-26T06:31:14.517Z,69.70
2019-04-26T06:33:51.748Z,68.80
2019-04-26T06:36:24.803Z,70.00
2019-04-26T06:39:21.585Z,69.10
2019-04-26T06:42:11.372Z,69.00
2019-04-26T06:48:03.936Z,69.90
2019-04-26T06:50:52.124Z,68.30
2019-04-26T06:57:15.336Z,68.80
2019-04-26T07:00:09.758Z,70.00
2019-04-26T07:03:08.061Z,69.20
2019-04-26T07:05:42.799Z,69.60
2019-04-26T07:08:59.389Z,68.50
2019-04-26T07:11:57.100Z,69.30
2019-04-26T07:17:47.817Z,71.20
2019-04-26T07:20:19.601Z,70.80
2019-04-26T07:26:25.312Z,69.00
2019-04-26T07:29:18.696Z,69.60
2019-04-26T07:32:14.698Z,71.10
2019-04-26T07:38:19.353Z,67.70
2019-04-26T07:41:15.969Z,68.90
2019-04-26T07:47:24.519Z,67.50
2019-04-26T07:50:18.563Z,67.30
2019-04-26T07:53:05.469Z,67.10
2019-04-26T07:59:30.252Z,68.10
2019-04-26T08:02:23.176Z,67.40
2019-04-26T08:05:03.309Z,66.20
2019-04-26T08:07:38.287Z,66.80
2019-04-26T08:10:16.111Z,67.30
2019-04-26T08:12:49.043Z,66.70
2019-04-26T08:15:38.992Z,67.50
2019-04-26T08:18:15.270Z,68.20
2019-04-26T08:20:50.598Z,66.70
2019-04-26T08:23:39.513Z,67.50
2019-04-26T08:26:02.684Z,65.30
2019-04-26T08:28:37.719Z,65.80
2019-04-26T08:31:09.472Z,64.50
2019-04-26T08:33:49.893Z,64.00
2019-04-26T08:36:23.309Z,64.60
2019-04-26T08:38:54.181Z,63.20
2019-04-26T08:41:25.678Z,64.30
2019-04-26T08:44:21.407Z,64.00
2019-04-26T08:46:56.953Z,65.00
2019-04-26T08:49:30.916Z,64.90
2019-04-26T08:52:13.699Z,64.20
2019-04-26T08:57:28.046Z,64.50
2019-04-26T09:00:06.636Z,65.00
2019-04-26T09:02:39.495Z,64.90
2019-04-26T09:05:34.088Z,65.50
2019-04-26T09:08:08.220Z,65.20
2019-04-26T09:10:48.711Z,65.50
2019-04-26T09:13:25.303Z,67.60
2019-04-26T09:16:13.712Z,65.30
2019-04-26T09:18:53.121Z,64.90
2019-04-26T09:21:24.751Z,64.70
2019-04-26T09:24:14.308Z,63.70
2019-04-26T09:26:46.681Z,63.10
2019-04-26T09:29:35.776Z,63.90
2019-04-26T09:32:12.135Z,64.80
2019-04-26T09:34:43.889Z,62.90
2019-04-26T09:37:14.149Z,63.80
2019-04-26T09:39:48.761Z,63.20
2019-04-26T09:42:32.019Z,64.60
2019-04-26T09:45:18.788Z,63.80
2019-04-26T09:48:10.684Z,64.50
2019-04-26T09:50:42.536Z,63.70
2019-04-26T09:53:17.561Z,64.10
2019-04-26T09:55:54.778Z,64.00
2019-04-26T09:58:26.924Z,66.50
2019-04-26T10:01:00.234Z,66.20
2019-04-26T10:03:38.084Z,67.40
2019-04-26T10:06:19.525Z,68.80
2019-04-26T10:08:53.412Z,67.70
2019-04-26T10:11:31.498Z,70.40
2019-04-26T10:14:01.943Z,68.20
2019-04-26T10:16:46.305Z,70.90
2019-04-26T10:19:17.674Z,71.30
2019-04-26T10:21:52.416Z,71.30
2019-04-26T10:24:29.681Z,74.00
2019-04-26T10:27:05.453Z,74.60
2019-04-26T10:29:34.304Z,72.00
2019-04-26T10:32:10.023Z,72.20
2019-04-26T10:34:42.807Z,72.90
2019-04-26T10:37:39.145Z,72.70
2019-04-26T10:40:05.199Z,70.00
2019-04-26T10:42:37.140Z,70.80
2019-04-26T10:45:16.304Z,71.00
2019-04-26T10:47:50.712Z,73.10
2019-04-26T10:50:32.915Z,74.90
2019-04-26T10:53:02.632Z,76.50
2019-04-26T10:55:51.895Z,75.70
2019-04-26T10:58:26.923Z,72.40
2019-04-26T11:01:10.976Z,76.20
2019-04-26T11:03:48.871Z,73.60
2019-04-26T11:06:29.060Z,75.70
2019-04-26T11:09:00.837Z,75.50
2019-04-26T11:11:39.590Z,74.70
2019-04-26T11:14:24.458Z,76.70
2019-04-26T11:16:56.997Z,77.70
2019-04-26T11:19:36.603Z,78.10
2019-04-26T11:22:29.174Z,78.50
2019-04-26T11:24:53.898Z,75.00
2019-04-26T11:27:21.267Z,78.50
2019-04-26T11:29:54.083Z,79.00
2019-04-26T11:32:24.902Z,78.50
2019-04-26T11:34:54.560Z,80.50
2019-04-26T11:37:35.581Z,79.80
2019-04-26T11:40:10.249Z,79.50
2019-04-26T11:42:41.847Z,80.70
2019-04-26T11:45:14.763Z,80.60
2019-04-26T11:47:55.831Z,80.50
2019-04-26T11:50:21.096Z,78.60
2019-04-26T11:52:56.098Z,77.00
2019-04-26T11:55:25.333Z,80.10
2019-04-26T11:57:57.416Z,80.10
2019-04-26T12:00:27.932Z,81.50
2019-04-26T12:02:59.777Z,84.50
2019-04-26T12:08:41.404Z,85.20
2019-04-26T12:11:18.279Z,82.30
2019-04-26T12:13:46.211Z,84.60
2019-04-26T12:16:18.877Z,84.20
2019-04-26T12:18:52.566Z,83.70
2019-04-26T12:21:22.716Z,86.20
2019-04-26T12:23:54.923Z,85.60
2019-04-26T12:26:27.457Z,86.00
2019-04-26T12:28:59.447Z,84.60
2019-04-26T12:31:29.541Z,84.60
2019-04-26T12:34:00.077Z,83.70
2019-04-26T12:36:53.052Z,83.70
2019-04-26T12:39:25.111Z,83.80
2019-04-26T12:41:59.623Z,86.60
2019-04-26T12:44:39.130Z,87.10
2019-04-26T12:47:20.967Z,86.70
2019-04-26T12:49:54.534Z,86.60
2019-04-26T12:52:31.031Z,85.20
2019-04-26T12:55:04.257Z,87.20
2019-04-26T12:57:36.589Z,85.90
2019-04-26T13:00:08.255Z,84.80
2019-04-26T13:02:50.247Z,88.50
2019-04-26T13:05:18.976Z,88.60
2019-04-26T13:07:49.703Z,89.60
2019-04-26T13:13:32.497Z,85.90
2019-04-26T13:16:07.155Z,86.50
2019-04-26T13:18:41.222Z,85.00
2019-04-26T13:21:10.441Z,86.00
2019-04-26T13:23:50.990Z,87.50
2019-04-26T13:26:30.328Z,87.20
2019-04-26T13:29:01.205Z,86.40
2019-04-26T13:31:34.183Z,86.10
2019-04-26T13:34:04.625Z,86.30
2019-04-26T13:36:35.510Z,87.60
2019-04-26T13:39:17.925Z,87.90
2019-04-26T13:42:02.944Z,84.40
2019-04-26T13:44:44.381Z,87.20
2019-04-26T13:47:18.887Z,88.50
2019-04-26T13:50:07.325Z,85.00
2019-04-26T13:52:37.468Z,85.10
2019-04-26T13:55:07.623Z,84.60
2019-04-26T13:57:44.451Z,85.00
2019-04-26T14:00:25.058Z,87.70
2019-04-26T14:03:03.875Z,89.40
2019-04-26T14:05:37.611Z,87.10
2019-04-26T14:08:29.672Z,85.50
2019-04-26T14:11:04.185Z,87.60
2019-04-26T14:13:38.718Z,88.40
2019-04-26T14:16:21.257Z,87.10
2019-04-26T14:18:53.578Z,83.20
2019-04-26T14:21:33.185Z,83.30
2019-04-26T14:24:24.068Z,83.60
2019-04-26T14:27:03.820Z,85.90
2019-04-26T14:29:39.754Z,85.70
2019-04-26T14:32:13.962Z,87.50
2019-04-26T14:34:48.141Z,88.30
2019-04-26T14:37:18.285Z,88.50
2019-04-26T14:39:51.131Z,86.30
2019-04-26T14:42:33.092Z,86.20
2019-04-26T14:45:02.308Z,85.10
2019-04-26T14:47:46.805Z,85.60
2019-04-26T14:50:13.972Z,86.80
2019-04-26T14:52:47.405Z,88.00
2019-04-26T14:55:16.500Z,86.20
2019-04-26T14:57:53.998Z,86.00
2019-04-26T15:00:31.319Z,86.30
2019-04-26T15:03:12.332Z,84.90
2019-04-26T15:05:55.571Z,88.20
2019-04-26T15:08:27.339Z,87.40
2019-04-26T15:11:03.943Z,86.50
2019-04-26T15:13:40.313Z,87.20
2019-04-26T15:16:10.411Z,88.90
2019-04-26T15:18:37.486Z,87.10
2019-04-26T15:21:12.890Z,87.80
2019-04-26T15:23:47.223Z,87.20
2019-04-26T15:26:27.432Z,87.50
2019-04-26T15:28:55.246Z,88.00
2019-04-26T15:31:25.772Z,88.20
2019-04-26T15:33:56.025Z,89.30
2019-04-26T15:36:25.227Z,88.90
2019-04-26T15:39:33.129Z,90.20
2019-04-26T15:42:06.891Z,90.70
2019-04-26T15:47:52.439Z,90.20
2019-04-26T15:50:27.811Z,90.30
2019-04-26T15:52:56.897Z,91.20
2019-04-26T15:55:33.796Z,92.10
2019-04-26T15:58:08.218Z,93.30
2019-04-26T16:00:32.732Z,94.80
2019-04-26T16:03:07.526Z,95.10
2019-04-26T16:05:40.745Z,95.40
2019-04-26T16:08:14.093Z,95.50
2019-04-26T16:10:45.952Z,95.10
2019-04-26T16:13:24.474Z,95.30
2019-04-26T16:15:54.690Z,95.10
2019-04-26T16:18:44.112Z,95.20
2019-04-26T16:21:17.980Z,95.60
2019-04-26T16:23:53.659Z,94.90
2019-04-26T16:26:18.896Z,94.70
2019-04-26T16:28:51.753Z,95.70
2019-04-26T16:31:25.805Z,95.80
2019-04-26T16:34:11.777Z,95.40
2019-04-26T16:36:45.232Z,95.90
2019-04-26T16:39:23.306Z,97.50
2019-04-26T16:41:59.280Z,97.60
2019-04-26T16:44:36.665Z,97.60
2019-04-26T16:47:06.078Z,98.10
2019-04-26T16:49:46.229Z,98.10
2019-04-26T16:52:43.549Z,99.40
2019-04-26T16:55:21.402Z,99.90
2019-04-26T16:57:57.959Z,99.90
2019-04-26T17:00:48.248Z,98.60
2019-04-26T17:03:07.535Z,98.50
2019-04-26T17:05:47.547Z,98.50
2019-04-26T17:08:10.389Z,98.80
2019-04-26T17:10:46.970Z,98.00
2019-04-26T17:13:14.792Z,98.40
2019-04-26T17:15:43.345Z,98.20
2019-04-26T17:18:19.336Z,98.60
2019-04-26T17:20:48.177Z,98.60
2019-04-26T17:23:36.177Z,98.40
2019-04-26T17:28:56.214Z,98.80
2019-04-26T17:31:26.519Z,99.00
2019-04-26T17:33:57.375Z,99.40
2019-04-26T17:36:28.925Z,99.40
2019-04-26T17:41:28.480Z,99.60
2019-04-26T17:44:10.524Z,99.90
2019-04-26T17:46:37.206Z,99.90
2019-04-26T17:51:46.568Z,99.90
2019-04-26T17:54:40.749Z,99.90
2019-04-26T17:56:57.562Z,99.90
2019-04-26T17:59:33.485Z,99.90
2019-04-26T18:02:00.774Z,99.90
2019-04-26T18:04:35.926Z,99.90
2019-04-26T18:07:03.714Z,99.90
2019-04-26T18:09:45.802Z,99.90
2019-04-26T18:12:03.653Z,99.80
2019-04-26T18:14:35.400Z,99.90
2019-04-26T18:17:05.731Z,99.90
2019-04-26T18:19:44.387Z,99.90
2019-04-26T18:22:17.940Z,99.90
2019-04-26T18:24:50.630Z,99.90
2019-04-26T18:27:23.992Z,99.90
2019-04-26T18:29:59.844Z,99.90
2019-04-26T18:32:33.947Z,99.90
2019-04-26T18:35:01.287Z,99.90
2019-04-26T18:37:31.402Z,99.90
2019-04-26T18:40:04.580Z,99.90
2019-04-26T18:42:37.463Z,99.90
2019-04-26T18:45:30.039Z,99.90
2019-04-26T18:48:01.111Z,99.70
2019-04-26T18:50:36.508Z,99.40
2019-04-26T18:53:14.000Z,99.10
2019-04-26T18:55:47.611Z,99.10
2019-04-26T18:58:16.617Z,99.50
2019-04-26T19:00:53.116Z,99.30
2019-04-26T19:03:19.799Z,99.60
2019-04-26T19:05:50.197Z,99.30
2019-04-26T19:08:20.889Z,98.80
2019-04-26T19:11:00.451Z,99.10
2019-04-26T19:13:24.484Z,99.90
2019-04-26T19:16:03.032Z,99.90
2019-04-26T19:18:45.366Z,99.90
2019-04-26T19:21:28.022Z,99.90
2019-04-26T19:24:07.473Z,99.90
2019-04-26T19:26:34.982Z,99.90
2019-04-26T19:29:18.175Z,99.90
2019-04-26T19:32:06.269Z,99.90
2019-04-26T19:34:38.104Z,99.90
2019-04-26T19:37:09.965Z,99.90
2019-04-26T19:39:40.164Z,99.90
2019-04-26T19:42:08.886Z,99.90
2019-04-26T19:44:39.195Z,99.90
2019-04-26T19:47:12.334Z,99.90
2019-04-26T19:56:06.898Z,99.90
2019-04-26T19:58:42.004Z,99.90
2019-04-26T20:01:12.259Z,99.90
2019-04-26T20:03:47.375Z,99.90
2019-04-26T20:06:18.734Z,99.90
2019-04-26T20:08:49.708Z,99.90
2019-04-26T20:14:12.315Z,99.90
2019-04-26T20:16:43.626Z,99.90
2019-04-26T20:19:17.860Z,99.90
2019-04-26T20:21:49.749Z,99.90
2019-04-26T20:24:21.566Z,99.90
2019-04-26T20:26:52.402Z,99.90
2019-04-26T20:29:23.194Z,99.90
2019-04-26T20:34:37.303Z,99.90
2019-04-26T20:37:07.990Z,99.90
2019-04-26T20:39:37.010Z,99.90
2019-04-26T20:42:07.534Z,99.90
2019-04-26T20:44:50.248Z,99.90
2019-04-26T20:47:14.306Z,99.90
2019-04-26T20:49:49.598Z,99.90
2019-04-26T20:52:16.488Z,99.90
2019-04-26T20:54:51.209Z,99.90
2019-04-26T20:57:26.613Z,99.90
2019-04-26T21:00:03.317Z,99.90
2019-04-26T21:02:34.758Z,99.90
2019-04-26T21:05:06.174Z,99.90
2019-04-26T21:07:35.634Z,99.90
2019-04-26T21:10:06.240Z,99.90
2019-04-26T21:12:34.902Z,99.90
2019-04-26T21:15:04.628Z,99.90
2019-04-26T21:17:41.630Z,99.90
2019-04-26T21:20:13.050Z,99.90
2019-04-26T21:22:46.198Z,99.90
2019-04-26T21:25:16.411Z,99.90
2019-04-26T21:27:46.639Z,99.90
2019-04-26T21:30:33.583Z,99.90
2019-04-26T21:33:08.024Z,99.90
2019-04-26T21:36:01.942Z,99.90
2019-04-26T21:38:37.119Z,99.90
2019-04-26T21:41:14.511Z,99.90
2019-04-26T21:43:43.902Z,99.90
2019-04-26T21:46:19.235Z,99.90
2019-04-26T21:48:53.514Z,99.90
2019-04-26T21:51:34.102Z,99.90
2019-04-26T21:54:04.473Z,99.90
2019-04-26T21:56:42.743Z,99.90
2019-04-26T21:59:11.706Z,99.90
2019-04-26T22:01:40.829Z,99.90
2019-04-26T22:04:10.953Z,99.90
2019-04-26T22:06:44.103Z,99.90
2019-04-26T22:09:40.484Z,99.90
2019-04-26T22:12:13.436Z,99.90
2019-04-26T22:14:50.487Z,99.90
2019-04-26T22:17:29.042Z,99.90
2019-04-26T22:20:18.622Z,99.90
2019-04-26T22:25:33.240Z,99.90
2019-04-26T22:28:03.439Z,99.90
2019-04-26T22:30:42.308Z,99.90
2019-04-26T22:33:13.690Z,99.90
2019-04-26T22:35:45.219Z,99.90
2019-04-26T22:38:37.733Z,99.90
2019-04-26T22:41:13.108Z,99.90
2019-04-26T22:44:06.343Z,99.90
2019-04-26T22:47:03.489Z,99.90
2019-04-26T22:49:35.025Z,99.90
2019-04-26T22:52:01.043Z,99.90
2019-04-26T22:54:31.322Z,99.90
2019-04-26T22:57:08.198Z,99.90
2019-04-26T22:59:38.241Z,99.90
2019-04-26T23:02:18.210Z,99.90
2019-04-26T23:04:45.303Z,99.90
2019-04-26T23:07:26.944Z,99.90
2019-04-26T23:10:04.229Z,99.90
2019-04-26T23:12:53.982Z,99.90
2019-04-26T23:15:33.510Z,99.90
2019-04-26T23:18:20.074Z,99.90
2019-04-26T23:20:50.288Z,99.90
2019-04-26T23:23:23.612Z,99.90
2019-04-26T23:26:02.318Z,99.90
2019-04-26T23:28:37.034Z,99.90
2019-04-26T23:31:08.323Z,99.90
2019-04-26T23:33:37.905Z,99.90
2019-04-26T23:36:10.875Z,99.90
2019-04-26T23:38:41.263Z,99.90
2019-04-26T23:41:15.736Z,99.90
2019-04-26T23:43:54.338Z,99.90
2019-04-26T23:46:25.958Z,99.90
2019-04-26T23:48:53.859Z,99.90
2019-04-26T23:51:33.958Z,99.90
2019-04-26T23:53:57.849Z,99.90
2019-04-26T23:56:28.207Z,99.90
2019-04-26T23:58:58.614Z,99.90
